sensor_id;sensor_type;location;lat;lon;timestamp;pressure;altitude;pressure_sealevel;temperature;humidity
818;BME280;391;51.052;6.954;2023-04-28T00:02:00;100650.19;;;13.89;51.29
818;BME280;391;51.052;6.954;2023-04-28T00:04:24;100644.88;;;13.86;51.57
818;BME280;391;51.052;6.954;2023-04-28T00:06:46;100653.63;;;13.87;51.64
818;BME280;391;51.052;6.954;2023-04-28T00:09:08;100641.38;;;13.86;51.79
818;BME280;391;51.052;6.954;2023-04-28T00:11:32;100637.97;;;13.90;51.88
818;BME280;391;51.052;6.954;2023-04-28T00:13:59;100636.91;;;13.77;52.37
818;BME280;391;51.052;6.954;2023-04-28T00:16:21;100644.94;;;13.89;52.89
818;BME280;391;51.052;6.954;2023-04-28T00:18:43;100637.91;;;13.88;53.43
818;BME280;391;51.052;6.954;2023-04-28T00:21:07;100596.75;;;13.79;53.50
818;BME280;391;51.052;6.954;2023-04-28T00:23:29;100624.00;;;13.92;54.03
818;BME280;391;51.052;6.954;2023-04-28T00:25:52;100610.81;;;13.85;54.55
818;BME280;391;51.052;6.954;2023-04-28T00:28:15;100611.56;;;13.76;54.97
818;BME280;391;51.052;6.954;2023-04-28T00:30:53;100604.63;;;13.78;55.43
818;BME280;391;51.052;6.954;2023-04-28T00:33:16;100587.03;;;13.72;55.70
818;BME280;391;51.052;6.954;2023-04-28T00:35:40;100596.72;;;13.76;56.18
818;BME280;391;51.052;6.954;2023-04-28T00:38:04;100555.28;;;13.50;56.44
818;BME280;391;51.052;6.954;2023-04-28T00:40:32;100598.41;;;13.73;56.73
818;BME280;391;51.052;6.954;2023-04-28T00:42:55;100576.47;;;13.66;57.24
818;BME280;391;51.052;6.954;2023-04-28T00:45:20;100560.63;;;13.57;57.24
818;BME280;391;51.052;6.954;2023-04-28T00:47:42;100587.03;;;13.71;57.33
818;BME280;391;51.052;6.954;2023-04-28T00:50:05;100579.09;;;13.65;57.82
818;BME280;391;51.052;6.954;2023-04-28T00:52:30;100578.16;;;13.61;57.83
818;BME280;391;51.052;6.954;2023-04-28T00:54:53;100587.00;;;13.68;58.28
818;BME280;391;51.052;6.954;2023-04-28T00:57:15;100568.59;;;13.62;58.38
818;BME280;391;51.052;6.954;2023-04-28T00:59:39;100565.00;;;13.55;58.51
818;BME280;391;51.052;6.954;2023-04-28T01:02:02;100587.72;;;13.58;58.72
818;BME280;391;51.052;6.954;2023-04-28T01:04:25;100470.66;;;12.94;59.01
818;BME280;391;51.052;6.954;2023-04-28T01:06:51;100554.34;;;13.45;59.10
818;BME280;391;51.052;6.954;2023-04-28T01:09:14;100572.81;;;13.52;59.45
818;BME280;391;51.052;6.954;2023-04-28T01:11:37;100571.06;;;13.54;59.67
818;BME280;391;51.052;6.954;2023-04-28T01:14:02;100575.56;;;13.61;59.73
818;BME280;391;51.052;6.954;2023-04-28T01:16:24;100528.88;;;13.33;60.13
818;BME280;391;51.052;6.954;2023-04-28T01:18:47;100569.31;;;13.53;60.66
818;BME280;391;51.052;6.954;2023-04-28T01:21:09;100567.63;;;13.57;60.99
818;BME280;391;51.052;6.954;2023-04-28T01:23:31;100567.69;;;13.63;61.21
818;BME280;391;51.052;6.954;2023-04-28T01:25:55;100574.63;;;13.58;61.37
818;BME280;391;51.052;6.954;2023-04-28T01:28:18;100553.47;;;13.44;61.90
818;BME280;391;51.052;6.954;2023-04-28T01:30:40;100565.66;;;13.42;62.33
818;BME280;391;51.052;6.954;2023-04-28T01:33:03;100571.03;;;13.51;62.45
818;BME280;391;51.052;6.954;2023-04-28T01:35:25;100571.00;;;13.50;62.60
818;BME280;391;51.052;6.954;2023-04-28T01:37:47;100568.28;;;13.44;62.93
818;BME280;391;51.052;6.954;2023-04-28T01:40:11;100573.50;;;13.39;62.79
818;BME280;391;51.052;6.954;2023-04-28T01:42:36;100465.94;;;12.70;63.25
818;BME280;391;51.052;6.954;2023-04-28T01:45:03;100570.88;;;13.39;63.46
818;BME280;391;51.052;6.954;2023-04-28T01:47:26;100563.09;;;13.45;63.48
818;BME280;391;51.052;6.954;2023-04-28T01:49:48;100562.16;;;13.42;63.71
818;BME280;391;51.052;6.954;2023-04-28T01:52:10;100564.53;;;13.25;64.09
818;BME280;391;51.052;6.954;2023-04-28T01:54:32;100561.88;;;13.22;64.20
818;BME280;391;51.052;6.954;2023-04-28T01:56:55;100551.25;;;13.13;64.30
818;BME280;391;51.052;6.954;2023-04-28T01:59:18;100563.38;;;13.08;64.70
818;BME280;391;51.052;6.954;2023-04-28T02:01:40;100573.84;;;13.08;65.23
818;BME280;391;51.052;6.954;2023-04-28T02:04:02;100562.53;;;13.09;65.08
818;BME280;391;51.052;6.954;2023-04-28T02:06:24;100567.06;;;13.17;65.26
818;BME280;391;51.052;6.954;2023-04-28T02:08:47;100567.00;;;13.14;65.39
818;BME280;391;51.052;6.954;2023-04-28T02:11:11;100559.72;;;12.98;66.28
818;BME280;391;51.052;6.954;2023-04-28T02:13:36;100457.41;;;12.28;66.88
818;BME280;391;51.052;6.954;2023-04-28T02:16:01;100564.78;;;12.88;67.06
818;BME280;391;51.052;6.954;2023-04-28T02:18:23;100545.44;;;12.80;67.01
818;BME280;391;51.052;6.954;2023-04-28T02:20:46;100565.63;;;12.87;67.54
818;BME280;391;51.052;6.954;2023-04-28T02:23:09;100563.06;;;12.90;67.83
818;BME280;391;51.052;6.954;2023-04-28T02:25:31;100562.97;;;12.84;68.28
818;BME280;391;51.052;6.954;2023-04-28T02:27:53;100560.28;;;12.81;68.77
818;BME280;391;51.052;6.954;2023-04-28T02:30:15;100548.78;;;12.71;69.51
818;BME280;391;51.052;6.954;2023-04-28T02:32:38;100548.44;;;12.51;70.83
818;BME280;391;51.052;6.954;2023-04-28T02:35:00;100544.09;;;12.50;71.25
818;BME280;391;51.052;6.954;2023-04-28T02:37:23;100502.56;;;12.20;71.86
818;BME280;391;51.052;6.954;2023-04-28T02:39:47;100537.63;;;12.32;72.43
818;BME280;391;51.052;6.954;2023-04-28T02:42:10;100537.69;;;12.35;73.05
818;BME280;391;51.052;6.954;2023-04-28T02:44:33;100527.09;;;12.29;73.22
818;BME280;391;51.052;6.954;2023-04-28T02:46:55;100495.31;;;12.04;73.46
818;BME280;391;51.052;6.954;2023-04-28T02:49:20;100533.94;;;12.22;74.12
818;BME280;391;51.052;6.954;2023-04-28T02:51:42;100525.88;;;12.08;74.57
818;BME280;391;51.052;6.954;2023-04-28T02:54:04;100507.19;;;11.90;75.14
818;BME280;391;51.052;6.954;2023-04-28T02:56:26;100528.31;;;11.99;75.61
818;BME280;391;51.052;6.954;2023-04-28T02:58:49;100486.06;;;11.77;75.51
818;BME280;391;51.052;6.954;2023-04-28T03:01:11;100393.50;;;11.21;75.26
818;BME280;391;51.052;6.954;2023-04-28T03:03:33;100524.75;;;11.97;75.24
818;BME280;391;51.052;6.954;2023-04-28T03:05:58;100521.44;;;12.04;75.19
818;BME280;391;51.052;6.954;2023-04-28T03:08:20;100514.53;;;12.09;75.04
818;BME280;391;51.052;6.954;2023-04-28T03:10:42;100511.13;;;12.12;75.51
818;BME280;391;51.052;6.954;2023-04-28T03:13:05;100519.69;;;12.05;75.58
818;BME280;391;51.052;6.954;2023-04-28T03:15:29;100502.13;;;11.96;76.07
818;BME280;391;51.052;6.954;2023-04-28T03:17:52;100522.22;;;12.00;75.99
818;BME280;391;51.052;6.954;2023-04-28T03:20:14;100519.66;;;12.03;75.95
818;BME280;391;51.052;6.954;2023-04-28T03:22:38;100510.97;;;12.04;76.07
818;BME280;391;51.052;6.954;2023-04-28T03:25:00;100475.78;;;11.86;76.05
818;BME280;391;51.052;6.954;2023-04-28T03:27:22;100503.31;;;12.13;75.72
818;BME280;391;51.052;6.954;2023-04-28T03:29:44;100512.06;;;12.15;75.87
818;BME280;391;51.052;6.954;2023-04-28T03:32:06;100504.91;;;12.07;76.03
818;BME280;391;51.052;6.954;2023-04-28T03:34:30;100515.47;;;12.13;76.09
818;BME280;391;51.052;6.954;2023-04-28T03:36:52;100513.63;;;12.06;76.23
818;BME280;391;51.052;6.954;2023-04-28T03:39:16;100498.81;;;12.06;76.00
818;BME280;391;51.052;6.954;2023-04-28T03:41:38;100494.34;;;12.01;76.68
818;BME280;391;51.052;6.954;2023-04-28T03:44:06;100325.34;;;11.05;76.83
818;BME280;391;51.052;6.954;2023-04-28T03:46:29;100494.41;;;12.04;77.09
818;BME280;391;51.052;6.954;2023-04-28T03:48:51;100490.06;;;12.03;77.17
818;BME280;391;51.052;6.954;2023-04-28T03:51:14;100491.63;;;11.93;77.47
818;BME280;391;51.052;6.954;2023-04-28T03:53:37;100488.81;;;11.84;77.73
818;BME280;391;51.052;6.954;2023-04-28T03:56:00;100481.00;;;11.86;78.15
818;BME280;391;51.052;6.954;2023-04-28T03:58:22;100468.66;;;11.77;78.65
818;BME280;391;51.052;6.954;2023-04-28T04:00:45;100450.91;;;11.62;78.98
818;BME280;391;51.052;6.954;2023-04-28T04:03:07;100452.69;;;11.65;79.76
818;BME280;391;51.052;6.954;2023-04-28T04:05:31;100429.88;;;11.55;80.19
818;BME280;391;51.052;6.954;2023-04-28T04:07:52;100427.16;;;11.50;80.84
818;BME280;391;51.052;6.954;2023-04-28T04:10:15;100430.66;;;11.51;81.17
818;BME280;391;51.052;6.954;2023-04-28T04:12:39;100442.78;;;11.49;81.10
818;BME280;391;51.052;6.954;2023-04-28T04:15:03;100418.38;;;11.45;81.60
818;BME280;391;51.052;6.954;2023-04-28T04:17:28;100416.56;;;11.41;81.72
818;BME280;391;51.052;6.954;2023-04-28T04:19:50;100400.84;;;11.40;82.30
818;BME280;391;51.052;6.954;2023-04-28T04:22:12;100386.00;;;11.37;82.49
818;BME280;391;51.052;6.954;2023-04-28T04:24:35;100398.22;;;11.38;82.84
818;BME280;391;51.052;6.954;2023-04-28T04:26:58;100409.75;;;11.49;82.88
818;BME280;391;51.052;6.954;2023-04-28T04:29:21;100406.38;;;11.55;82.93
818;BME280;391;51.052;6.954;2023-04-28T04:31:44;100397.63;;;11.53;82.90
818;BME280;391;51.052;6.954;2023-04-28T04:34:06;100404.56;;;11.51;82.54
818;BME280;391;51.052;6.954;2023-04-28T04:36:29;100415.06;;;11.55;82.57
818;BME280;391;51.052;6.954;2023-04-28T04:38:52;100356.06;;;11.19;82.58
818;BME280;391;51.052;6.954;2023-04-28T04:41:17;100417.69;;;11.54;81.81
818;BME280;391;51.052;6.954;2023-04-28T04:43:40;100409.69;;;11.46;81.91
818;BME280;391;51.052;6.954;2023-04-28T04:46:06;100412.28;;;11.45;81.80
818;BME280;391;51.052;6.954;2023-04-28T04:48:29;100411.44;;;11.47;81.79
818;BME280;391;51.052;6.954;2023-04-28T04:50:51;100416.69;;;11.49;81.90
818;BME280;391;51.052;6.954;2023-04-28T04:53:13;100368.16;;;11.15;81.54
818;BME280;391;51.052;6.954;2023-04-28T04:55:36;100421.88;;;11.47;81.65
818;BME280;391;51.052;6.954;2023-04-28T04:57:58;100423.66;;;11.48;81.35
818;BME280;391;51.052;6.954;2023-04-28T05:00:20;100421.16;;;11.54;81.30
818;BME280;391;51.052;6.954;2023-04-28T05:02:43;100423.00;;;11.60;81.16
818;BME280;391;51.052;6.954;2023-04-28T05:05:06;100421.47;;;11.69;81.08
818;BME280;391;51.052;6.954;2023-04-28T05:07:41;100422.44;;;11.73;80.85
818;BME280;391;51.052;6.954;2023-04-28T05:10:04;100416.31;;;11.73;80.92
818;BME280;391;51.052;6.954;2023-04-28T05:12:27;100433.75;;;11.74;80.61
818;BME280;391;51.052;6.954;2023-04-28T05:14:55;100437.16;;;11.71;80.63
818;BME280;391;51.052;6.954;2023-04-28T05:17:18;100423.38;;;11.78;80.41
818;BME280;391;51.052;6.954;2023-04-28T05:19:42;100415.50;;;11.75;80.87
818;BME280;391;51.052;6.954;2023-04-28T05:22:05;100424.38;;;11.85;80.75
818;BME280;391;51.052;6.954;2023-04-28T05:24:27;100413.03;;;11.84;80.54
818;BME280;391;51.052;6.954;2023-04-28T05:26:49;100414.91;;;11.90;80.80
818;BME280;391;51.052;6.954;2023-04-28T05:29:11;100406.31;;;11.97;80.79
818;BME280;391;51.052;6.954;2023-04-28T05:31:33;100409.13;;;12.07;80.80
818;BME280;391;51.052;6.954;2023-04-28T05:33:55;100413.50;;;12.10;80.81
818;BME280;391;51.052;6.954;2023-04-28T05:36:19;100420.22;;;11.94;80.89
818;BME280;391;51.052;6.954;2023-04-28T05:38:41;100412.09;;;11.81;81.66
818;BME280;391;51.052;6.954;2023-04-28T05:41:03;100419.25;;;11.89;81.52
818;BME280;391;51.052;6.954;2023-04-28T05:43:25;100405.31;;;11.89;81.84
818;BME280;391;51.052;6.954;2023-04-28T05:45:48;100411.44;;;11.91;82.01
818;BME280;391;51.052;6.954;2023-04-28T05:48:10;100415.59;;;11.81;82.62
818;BME280;391;51.052;6.954;2023-04-28T05:50:33;100417.38;;;11.82;83.28
818;BME280;391;51.052;6.954;2023-04-28T05:53:00;100411.31;;;11.83;83.52
818;BME280;391;51.052;6.954;2023-04-28T05:55:21;100392.09;;;11.80;83.33
818;BME280;391;51.052;6.954;2023-04-28T05:57:44;100370.25;;;11.78;83.53
818;BME280;391;51.052;6.954;2023-04-28T06:00:14;100299.81;;;11.34;83.37
818;BME280;391;51.052;6.954;2023-04-28T06:02:54;100407.25;;;11.99;83.71
818;BME280;391;51.052;6.954;2023-04-28T06:05:40;100404.59;;;11.97;83.99
818;BME280;391;51.052;6.954;2023-04-28T06:08:24;100386.97;;;11.86;84.27
818;BME280;391;51.052;6.954;2023-04-28T06:11:07;100395.66;;;11.85;84.98
818;BME280;391;51.052;6.954;2023-04-28T06:13:55;100384.50;;;11.95;85.01
818;BME280;391;51.052;6.954;2023-04-28T06:16:41;100395.13;;;12.04;85.22
818;BME280;391;51.052;6.954;2023-04-28T06:19:25;100397.69;;;11.99;85.19
818;BME280;391;51.052;6.954;2023-04-28T06:36:06;100400.88;;;11.85;86.65
818;BME280;391;51.052;6.954;2023-04-28T06:38:10;100400.25;;;11.98;86.37
818;BME280;391;51.052;6.954;2023-04-28T06:40:14;100360.00;;;11.87;86.42
818;BME280;391;51.052;6.954;2023-04-28T06:42:25;100394.38;;;12.11;86.03
818;BME280;391;51.052;6.954;2023-04-28T06:44:42;100401.53;;;12.21;86.61
818;BME280;391;51.052;6.954;2023-04-28T06:46:45;100403.50;;;12.36;85.84
818;BME280;391;51.052;6.954;2023-04-28T06:48:49;100402.50;;;12.29;85.60
818;BME280;391;51.052;6.954;2023-04-28T06:50:52;100398.28;;;12.36;85.93
818;BME280;391;51.052;6.954;2023-04-28T06:52:58;100390.66;;;12.49;85.79
818;BME280;391;51.052;6.954;2023-04-28T06:55:04;100296.72;;;12.03;85.53
818;BME280;391;51.052;6.954;2023-04-28T06:57:08;100387.22;;;12.53;84.57
818;BME280;391;51.052;6.954;2023-04-28T06:59:11;100399.34;;;12.48;84.63
818;BME280;391;51.052;6.954;2023-04-28T07:01:15;100404.50;;;12.44;84.82
818;BME280;391;51.052;6.954;2023-04-28T07:03:18;100382.50;;;12.30;85.45
818;BME280;391;51.052;6.954;2023-04-28T07:05:22;100407.22;;;12.51;85.13
818;BME280;391;51.052;6.954;2023-04-28T07:07:26;100400.31;;;12.55;84.87
818;BME280;391;51.052;6.954;2023-04-28T07:09:30;100397.75;;;12.58;85.11
818;BME280;391;51.052;6.954;2023-04-28T07:11:34;100397.75;;;12.58;84.70
818;BME280;391;51.052;6.954;2023-04-28T07:13:38;100406.47;;;12.58;85.05
818;BME280;391;51.052;6.954;2023-04-28T07:15:41;100408.09;;;12.50;84.77
818;BME280;391;51.052;6.954;2023-04-28T07:17:44;100418.53;;;12.47;84.73
818;BME280;391;51.052;6.954;2023-04-28T07:19:48;100413.28;;;12.47;85.05
818;BME280;391;51.052;6.954;2023-04-28T07:21:52;100417.72;;;12.54;84.80
818;BME280;391;51.052;6.954;2023-04-28T07:23:55;100412.44;;;12.50;84.29
818;BME280;391;51.052;6.954;2023-04-28T07:26:00;100417.69;;;12.50;84.57
818;BME280;391;51.052;6.954;2023-04-28T07:28:04;100423.00;;;12.57;84.22
818;BME280;391;51.052;6.954;2023-04-28T07:30:08;100425.81;;;12.68;84.07
818;BME280;391;51.052;6.954;2023-04-28T07:32:28;100419.69;;;12.67;83.78
818;BME280;391;51.052;6.954;2023-04-28T07:34:32;100411.69;;;12.57;84.09
818;BME280;391;51.052;6.954;2023-04-28T07:36:35;100427.34;;;12.55;84.49
818;BME280;391;51.052;6.954;2023-04-28T07:38:39;100423.06;;;12.60;84.72
818;BME280;391;51.052;6.954;2023-04-28T07:40:42;100415.22;;;12.59;84.90
818;BME280;391;51.052;6.954;2023-04-28T07:42:48;100409.94;;;12.57;84.84
818;BME280;391;51.052;6.954;2023-04-28T07:44:51;100412.41;;;12.48;85.29
818;BME280;391;51.052;6.954;2023-04-28T07:46:55;100415.22;;;12.60;85.44
818;BME280;391;51.052;6.954;2023-04-28T07:48:58;100397.78;;;12.59;85.58
818;BME280;391;51.052;6.954;2023-04-28T07:51:02;100303.00;;;12.17;85.62
818;BME280;391;51.052;6.954;2023-04-28T07:53:05;100412.22;;;12.93;85.59
818;BME280;391;51.052;6.954;2023-04-28T07:55:09;100405.34;;;13.00;85.65
818;BME280;391;51.052;6.954;2023-04-28T07:57:12;100399.22;;;12.99;85.19
818;BME280;391;51.052;6.954;2023-04-28T07:59:17;100414.13;;;13.03;85.16
818;BME280;391;51.052;6.954;2023-04-28T08:01:20;100414.06;;;13.02;84.98
818;BME280;391;51.052;6.954;2023-04-28T08:03:24;100365.72;;;12.74;85.02
818;BME280;391;51.052;6.954;2023-04-28T08:05:28;100357.06;;;12.78;84.83
818;BME280;391;51.052;6.954;2023-04-28T08:07:31;100407.38;;;13.17;84.59
818;BME280;391;51.052;6.954;2023-04-28T08:09:35;100419.63;;;13.21;83.97
818;BME280;391;51.052;6.954;2023-04-28T08:11:38;100373.09;;;13.01;83.87
818;BME280;391;51.052;6.954;2023-04-28T08:13:42;100408.25;;;13.21;83.91
818;BME280;391;51.052;6.954;2023-04-28T08:15:47;100421.34;;;13.19;84.06
818;BME280;391;51.052;6.954;2023-04-28T08:17:51;100405.50;;;13.09;83.78
818;BME280;391;51.052;6.954;2023-04-28T08:19:54;100409.06;;;13.14;84.20
818;BME280;391;51.052;6.954;2023-04-28T08:21:58;100406.53;;;13.21;84.29
818;BME280;391;51.052;6.954;2023-04-28T08:24:06;100404.09;;;13.35;84.16
818;BME280;391;51.052;6.954;2023-04-28T08:26:11;100409.41;;;13.41;83.85
818;BME280;391;51.052;6.954;2023-04-28T08:28:15;100402.59;;;13.55;83.66
818;BME280;391;51.052;6.954;2023-04-28T08:30:18;100413.91;;;13.54;83.37
818;BME280;391;51.052;6.954;2023-04-28T08:32:23;100385.75;;;13.34;83.05
818;BME280;391;51.052;6.954;2023-04-28T08:34:27;100409.31;;;13.35;83.18
818;BME280;391;51.052;6.954;2023-04-28T08:36:30;100405.88;;;13.39;83.35
818;BME280;391;51.052;6.954;2023-04-28T08:38:39;100379.59;;;13.30;83.65
818;BME280;391;51.052;6.954;2023-04-28T08:40:54;100419.19;;;13.56;84.09
818;BME280;391;51.052;6.954;2023-04-28T08:42:58;100402.66;;;13.61;84.28
818;BME280;391;51.052;6.954;2023-04-28T08:45:03;100403.69;;;13.77;84.17
818;BME280;391;51.052;6.954;2023-04-28T08:47:12;100398.41;;;13.75;83.54
818;BME280;391;51.052;6.954;2023-04-28T08:49:17;100399.38;;;13.81;83.97
818;BME280;391;51.052;6.954;2023-04-28T08:51:25;100416.03;;;13.89;83.04
818;BME280;391;51.052;6.954;2023-04-28T08:53:34;100408.16;;;13.89;83.22
818;BME280;391;51.052;6.954;2023-04-28T08:55:59;100417.03;;;14.00;83.10
818;BME280;391;51.052;6.954;2023-04-28T08:58:03;100419.63;;;13.97;82.77
818;BME280;391;51.052;6.954;2023-04-28T09:00:07;100413.44;;;13.90;82.74
818;BME280;391;51.052;6.954;2023-04-28T09:02:11;100391.50;;;13.82;82.79
818;BME280;391;51.052;6.954;2023-04-28T09:04:17;100417.84;;;13.94;82.61
818;BME280;391;51.052;6.954;2023-04-28T09:06:21;100386.22;;;13.76;82.45
818;BME280;391;51.052;6.954;2023-04-28T09:08:24;100424.00;;;13.99;82.71
818;BME280;391;51.052;6.954;2023-04-28T09:10:28;100424.06;;;14.05;82.72
818;BME280;391;51.052;6.954;2023-04-28T09:12:35;100415.38;;;14.09;82.20
818;BME280;391;51.052;6.954;2023-04-28T09:14:39;100412.81;;;14.17;82.10
818;BME280;391;51.052;6.954;2023-04-28T09:16:43;100414.56;;;14.16;81.95
818;BME280;391;51.052;6.954;2023-04-28T09:18:55;100418.06;;;14.17;82.34
818;BME280;391;51.052;6.954;2023-04-28T09:21:04;100413.69;;;14.17;82.49
818;BME280;391;51.052;6.954;2023-04-28T09:23:12;100419.78;;;14.15;83.54
818;BME280;391;51.052;6.954;2023-04-28T09:25:17;100409.34;;;14.16;84.02
818;BME280;391;51.052;6.954;2023-04-28T09:27:26;100408.50;;;14.22;84.49
818;BME280;391;51.052;6.954;2023-04-28T09:29:30;100336.47;;;13.81;84.87
818;BME280;391;51.052;6.954;2023-04-28T09:31:34;100384.69;;;14.01;86.10
818;BME280;391;51.052;6.954;2023-04-28T09:33:55;100408.38;;;14.07;87.30
818;BME280;391;51.052;6.954;2023-04-28T09:35:59;100403.09;;;14.04;88.23
818;BME280;391;51.052;6.954;2023-04-28T09:38:04;100400.28;;;13.86;89.78
818;BME280;391;51.052;6.954;2023-04-28T09:40:09;100404.59;;;13.81;90.84
818;BME280;391;51.052;6.954;2023-04-28T09:42:31;100394.94;;;13.76;91.54
818;BME280;391;51.052;6.954;2023-04-28T09:44:35;100403.81;;;13.89;91.66
818;BME280;391;51.052;6.954;2023-04-28T09:46:39;100370.47;;;13.73;92.15
818;BME280;391;51.052;6.954;2023-04-28T09:48:43;100404.47;;;13.65;93.56
818;BME280;391;51.052;6.954;2023-04-28T09:50:47;100417.66;;;13.74;94.13
818;BME280;391;51.052;6.954;2023-04-28T09:52:55;100380.69;;;13.50;94.68
818;BME280;391;51.052;6.954;2023-04-28T09:55:02;100413.31;;;13.79;95.14
818;BME280;391;51.052;6.954;2023-04-28T09:57:06;100398.41;;;13.75;95.45
818;BME280;391;51.052;6.954;2023-04-28T09:59:10;100404.56;;;13.77;95.63
818;BME280;391;51.052;6.954;2023-04-28T10:01:13;100399.34;;;13.79;96.00
818;BME280;391;51.052;6.954;2023-04-28T10:03:20;100399.31;;;13.76;96.50
818;BME280;391;51.052;6.954;2023-04-28T10:05:28;100400.09;;;13.69;97.59
818;BME280;391;51.052;6.954;2023-04-28T10:07:32;100406.31;;;13.77;98.02
818;BME280;391;51.052;6.954;2023-04-28T10:09:37;100398.47;;;13.80;98.12
818;BME280;391;51.052;6.954;2023-04-28T10:11:42;100395.94;;;13.85;98.70
818;BME280;391;51.052;6.954;2023-04-28T10:13:45;100393.38;;;13.91;99.29
818;BME280;391;51.052;6.954;2023-04-28T10:15:50;100374.06;;;13.84;99.66
818;BME280;391;51.052;6.954;2023-04-28T10:17:56;100395.19;;;14.01;99.72
818;BME280;391;51.052;6.954;2023-04-28T10:20:01;100373.31;;;13.97;99.96
818;BME280;391;51.052;6.954;2023-04-28T10:22:18;100393.44;;;14.01;100.00
818;BME280;391;51.052;6.954;2023-04-28T10:24:28;100388.25;;;14.06;100.00
818;BME280;391;51.052;6.954;2023-04-28T10:27:06;100387.47;;;14.16;100.00
818;BME280;391;51.052;6.954;2023-04-28T10:29:10;100391.91;;;14.24;100.00
818;BME280;391;51.052;6.954;2023-04-28T10:31:15;100396.31;;;14.30;100.00
818;BME280;391;51.052;6.954;2023-04-28T10:33:23;100398.91;;;14.27;100.00
818;BME280;391;51.052;6.954;2023-04-28T10:35:41;100398.94;;;14.28;100.00
818;BME280;391;51.052;6.954;2023-04-28T10:38:04;100373.44;;;14.14;100.00
818;BME280;391;51.052;6.954;2023-04-28T10:40:30;100403.44;;;14.43;100.00
818;BME280;391;51.052;6.954;2023-04-28T10:42:54;100358.66;;;14.20;100.00
818;BME280;391;51.052;6.954;2023-04-28T10:44:58;100408.81;;;14.57;100.00
818;BME280;391;51.052;6.954;2023-04-28T10:47:03;100400.06;;;14.56;100.00
818;BME280;391;51.052;6.954;2023-04-28T10:49:08;100379.88;;;14.46;100.00
818;BME280;391;51.052;6.954;2023-04-28T10:51:22;100400.06;;;14.56;100.00
818;BME280;391;51.052;6.954;2023-04-28T10:56:04;100393.94;;;14.56;100.00
818;BME280;391;51.052;6.954;2023-04-28T10:58:31;100391.28;;;14.48;100.00
818;BME280;391;51.052;6.954;2023-04-28T11:00:35;100408.72;;;14.45;100.00
818;BME280;391;51.052;6.954;2023-04-28T11:02:39;100357.88;;;14.29;100.00
818;BME280;391;51.052;6.954;2023-04-28T11:05:13;100383.47;;;14.60;100.00
818;BME280;391;51.052;6.954;2023-04-28T11:07:17;100371.25;;;14.61;100.00
818;BME280;391;51.052;6.954;2023-04-28T11:09:46;100375.75;;;14.88;100.00
818;BME280;391;51.052;6.954;2023-04-28T11:12:03;100372.34;;;15.02;100.00
818;BME280;391;51.052;6.954;2023-04-28T11:14:33;100367.22;;;15.28;100.00
818;BME280;391;51.052;6.954;2023-04-28T11:16:47;100332.16;;;15.20;100.00
818;BME280;391;51.052;6.954;2023-04-28T11:18:53;100369.03;;;15.44;100.00
818;BME280;391;51.052;6.954;2023-04-28T11:20:57;100366.44;;;15.52;100.00
818;BME280;391;51.052;6.954;2023-04-28T11:23:02;100355.94;;;15.56;100.00
818;BME280;391;51.052;6.954;2023-04-28T11:25:08;100366.50;;;15.73;100.00
818;BME280;391;51.052;6.954;2023-04-28T11:27:22;100366.50;;;15.86;100.00
818;BME280;391;51.052;6.954;2023-04-28T11:29:34;100333.22;;;15.92;100.00
818;BME280;391;51.052;6.954;2023-04-28T11:31:38;100350.75;;;16.18;100.00
818;BME280;391;51.052;6.954;2023-04-28T11:33:42;100368.28;;;16.40;100.00
818;BME280;391;51.052;6.954;2023-04-28T11:35:48;100374.44;;;16.46;100.00
818;BME280;391;51.052;6.954;2023-04-28T11:38:00;100344.63;;;16.21;99.18
818;BME280;391;51.052;6.954;2023-04-28T11:40:09;100354.28;;;16.23;98.21
818;BME280;391;51.052;6.954;2023-04-28T11:42:12;100367.41;;;16.38;98.14
818;BME280;391;51.052;6.954;2023-04-28T11:44:17;100366.50;;;16.50;97.77
818;BME280;391;51.052;6.954;2023-04-28T11:46:24;100369.13;;;16.53;97.19
818;BME280;391;51.052;6.954;2023-04-28T11:48:28;100365.69;;;16.62;96.99
818;BME280;391;51.052;6.954;2023-04-28T11:50:34;100349.84;;;16.47;96.35
818;BME280;391;51.052;6.954;2023-04-28T11:52:47;100363.00;;;16.50;96.36
818;BME280;391;51.052;6.954;2023-04-28T11:54:54;100364.78;;;16.52;96.00
818;BME280;391;51.052;6.954;2023-04-28T11:56:59;100370.03;;;16.60;96.19
818;BME280;391;51.052;6.954;2023-04-28T11:59:06;100365.63;;;16.84;96.18
818;BME280;391;51.052;6.954;2023-04-28T12:01:11;100366.38;;;17.14;96.67
818;BME280;391;51.052;6.954;2023-04-28T12:03:17;100373.28;;;17.39;96.21
818;BME280;391;51.052;6.954;2023-04-28T12:05:21;100359.19;;;17.51;95.34
818;BME280;391;51.052;6.954;2023-04-28T12:07:25;100356.53;;;17.60;94.27
818;BME280;391;51.052;6.954;2023-04-28T12:09:29;100360.97;;;17.50;93.34
818;BME280;391;51.052;6.954;2023-04-28T12:11:32;100353.16;;;17.30;92.81
818;BME280;391;51.052;6.954;2023-04-28T12:13:36;100368.94;;;17.35;92.86
818;BME280;391;51.052;6.954;2023-04-28T12:15:40;100329.41;;;17.38;92.89
818;BME280;391;51.052;6.954;2023-04-28T12:17:43;100286.34;;;17.42;91.71
818;BME280;391;51.052;6.954;2023-04-28T12:19:48;100354.56;;;17.92;91.04
818;BME280;391;51.052;6.954;2023-04-28T12:22:00;100340.41;;;18.04;89.20
818;BME280;391;51.052;6.954;2023-04-28T12:24:17;100327.34;;;17.90;88.15
818;BME280;391;51.052;6.954;2023-04-28T12:26:23;100338.69;;;18.01;87.77
818;BME280;391;51.052;6.954;2023-04-28T12:28:35;100339.56;;;18.00;87.06
818;BME280;391;51.052;6.954;2023-04-28T12:30:40;100353.53;;;18.13;87.00
818;BME280;391;51.052;6.954;2023-04-28T12:32:45;100328.97;;;18.03;86.93
818;BME280;391;51.052;6.954;2023-04-28T12:34:50;100344.66;;;18.24;86.19
818;BME280;391;51.052;6.954;2023-04-28T12:36:54;100340.22;;;18.26;85.89
818;BME280;391;51.052;6.954;2023-04-28T12:38:57;100343.72;;;18.31;85.60
818;BME280;391;51.052;6.954;2023-04-28T12:41:00;100322.72;;;18.18;85.11
818;BME280;391;51.052;6.954;2023-04-28T12:43:04;100340.00;;;18.49;85.63